createdAt,value
2023-03-13T00:02:03.368Z,53.85
2023-03-13T00:04:31.713Z,53.85
2023-03-13T00:07:00.287Z,53.82
2023-03-13T00:09:28.506Z,53.85
2023-03-13T00:11:56.738Z,53.63
2023-03-13T00:14:25.001Z,53.89
2023-03-13T00:16:53.345Z,53.65
2023-03-13T00:19:22.976Z,53.65
2023-03-13T00:21:51.206Z,53.63
2023-03-13T00:24:19.498Z,53.51
2023-03-13T00:26:47.723Z,53.33
2023-03-13T00:29:15.950Z,53.31
2023-03-13T00:31:44.223Z,53.24
2023-03-13T00:34:12.495Z,53.27
2023-03-13T00:36:42.063Z,53.22
2023-03-13T00:39:10.777Z,53.31
2023-03-13T00:41:39.515Z,53.26
2023-03-13T00:44:08.272Z,53.37
2023-03-13T00:46:37.106Z,53.26
2023-03-13T00:49:05.726Z,53.29
2023-03-13T00:51:34.222Z,53.17
2023-03-13T00:54:04.911Z,53.23
2023-03-13T00:56:33.217Z,53.33
2023-03-13T00:59:02.323Z,53.17
2023-03-13T01:01:33.933Z,53.41
2023-03-13T01:04:06.460Z,53.41
2023-03-13T01:06:36.898Z,53.49
2023-03-13T01:09:08.345Z,53.29
2023-03-13T01:11:39.071Z,53.42
2023-03-13T01:14:12.747Z,53.35
2023-03-13T01:16:41.634Z,53.48
2023-03-13T01:19:13.440Z,53.51
2023-03-13T01:21:42.966Z,53.51
2023-03-13T01:24:12.674Z,53.68
2023-03-13T01:26:40.936Z,53.71
2023-03-13T01:29:09.264Z,53.88
2023-03-13T01:31:38.210Z,53.83
2023-03-13T01:34:07.781Z,54.19
2023-03-13T01:36:38.384Z,54.18
2023-03-13T01:39:07.332Z,54.50
2023-03-13T01:41:38.297Z,54.54
2023-03-13T01:44:06.556Z,54.73
2023-03-13T01:46:34.893Z,54.94
2023-03-13T01:49:07.738Z,55.11
2023-03-13T01:51:40.178Z,55.04
2023-03-13T01:54:12.547Z,54.98
2023-03-13T01:56:47.463Z,55.09
2023-03-13T01:59:19.764Z,54.81
2023-03-13T02:01:50.831Z,54.97
2023-03-13T02:04:23.330Z,54.96
2023-03-13T02:06:56.028Z,54.86
2023-03-13T02:09:28.274Z,54.85
2023-03-13T02:12:04.974Z,54.71
2023-03-13T02:14:37.803Z,54.64
2023-03-13T02:17:08.404Z,54.64
2023-03-13T02:19:43.123Z,54.51
2023-03-13T02:22:20.052Z,54.69
2023-03-13T02:24:58.171Z,54.52
2023-03-13T02:27:28.005Z,54.51
2023-03-13T02:29:56.579Z,54.53
2023-03-13T02:32:26.603Z,54.43
2023-03-13T02:35:01.387Z,54.16
2023-03-13T02:37:31.475Z,54.35
2023-03-13T02:40:04.874Z,54.26
2023-03-13T02:42:34.525Z,54.25
2023-03-13T02:45:02.743Z,54.48
2023-03-13T02:47:30.976Z,54.37
2023-03-13T02:49:59.218Z,54.66
2023-03-13T02:52:30.991Z,54.71
2023-03-13T02:55:03.115Z,54.56
2023-03-13T02:57:35.362Z,54.62
2023-03-13T03:00:12.536Z,54.72
2023-03-13T03:02:41.216Z,54.86
2023-03-13T03:05:10.665Z,54.71
2023-03-13T03:07:38.970Z,54.56
2023-03-13T03:10:09.013Z,54.64
2023-03-13T03:12:37.300Z,54.32
2023-03-13T03:15:08.601Z,54.56
2023-03-13T03:17:37.023Z,54.39
2023-03-13T03:20:07.909Z,54.47
2023-03-13T03:22:38.527Z,54.59
2023-03-13T03:25:07.946Z,54.52
2023-03-13T03:27:37.386Z,54.60
2023-03-13T03:30:08.868Z,54.41
2023-03-13T03:32:37.206Z,54.51
2023-03-13T03:35:06.991Z,54.44
2023-03-13T03:37:35.262Z,54.43
2023-03-13T03:40:05.653Z,54.42
2023-03-13T03:42:34.480Z,54.46
2023-03-13T03:45:02.706Z,54.49
2023-03-13T03:47:32.471Z,54.65
2023-03-13T03:50:00.679Z,54.63
2023-03-13T03:52:28.877Z,54.71
2023-03-13T03:54:57.150Z,54.68
2023-03-13T03:57:26.099Z,54.50
2023-03-13T03:59:54.358Z,54.44
2023-03-13T04:02:22.585Z,54.34
2023-03-13T04:04:52.197Z,54.42
2023-03-13T04:07:20.547Z,54.41
2023-03-13T04:09:48.800Z,54.37
2023-03-13T04:12:17.122Z,54.36
2023-03-13T04:14:45.407Z,54.38
2023-03-13T04:17:13.680Z,54.40
2023-03-13T04:19:41.958Z,54.41
2023-03-13T04:22:11.659Z,54.23
2023-03-13T04:24:40.001Z,54.43
2023-03-13T04:27:08.179Z,54.42
2023-03-13T04:29:36.472Z,54.47
2023-03-13T04:32:04.983Z,54.37
2023-03-13T04:34:33.724Z,54.24
2023-03-13T04:37:02.004Z,54.39
2023-03-13T04:39:33.191Z,54.47
2023-03-13T04:42:01.522Z,54.23
2023-03-13T04:44:29.912Z,54.38
2023-03-13T04:46:58.156Z,54.29
2023-03-13T04:49:26.601Z,54.29
2023-03-13T04:51:55.101Z,54.37
2023-03-13T04:54:23.819Z,54.28
2023-03-13T04:56:53.525Z,54.30
2023-03-13T04:59:21.831Z,54.45
2023-03-13T05:01:50.143Z,54.41
2023-03-13T05:04:18.767Z,54.39
2023-03-13T05:06:46.990Z,54.35
2023-03-13T05:09:15.214Z,54.27
2023-03-13T05:11:43.486Z,54.44
2023-03-13T05:14:13.082Z,54.23
2023-03-13T05:16:41.315Z,54.13
2023-03-13T05:19:09.672Z,54.14
2023-03-13T05:21:38.273Z,54.10
2023-03-13T05:24:07.326Z,54.21
2023-03-13T05:26:35.676Z,54.40
2023-03-13T05:29:03.986Z,54.31
2023-03-13T05:31:33.766Z,54.31
2023-03-13T05:34:02.032Z,54.15
2023-03-13T05:36:30.254Z,54.25
2023-03-13T05:38:58.656Z,54.10
2023-03-13T05:41:26.980Z,54.27
2023-03-13T05:43:55.251Z,54.22
2023-03-13T05:46:23.579Z,54.41
2023-03-13T05:48:53.732Z,54.35
2023-03-13T05:51:22.000Z,54.40
2023-03-13T05:53:50.329Z,54.51
2023-03-13T05:56:18.579Z,54.50
2023-03-13T05:58:46.886Z,54.40
2023-03-13T06:01:16.136Z,54.46
2023-03-13T06:03:44.453Z,54.45
2023-03-13T06:06:14.175Z,54.52
2023-03-13T06:08:42.527Z,54.54
2023-03-13T06:11:10.817Z,54.40
2023-03-13T06:13:39.080Z,54.45
2023-03-13T06:16:08.621Z,54.23
2023-03-13T06:18:36.914Z,54.36
2023-03-13T06:21:05.642Z,54.19
2023-03-13T06:23:35.806Z,54.17
2023-03-13T06:26:04.342Z,54.19
2023-03-13T06:28:32.607Z,54.13
2023-03-13T06:31:03.866Z,54.04
2023-03-13T06:33:32.633Z,54.14
2023-03-13T06:36:03.037Z,54.07
2023-03-13T06:38:31.741Z,54.02
2023-03-13T06:41:01.401Z,54.02
2023-03-13T06:43:29.915Z,53.97
2023-03-13T06:45:58.243Z,54.06
2023-03-13T06:48:26.530Z,53.89
2023-03-13T06:50:56.605Z,54.04
2023-03-13T06:53:24.922Z,54.01
2023-03-13T06:55:53.417Z,53.94
2023-03-13T06:58:32.171Z,53.90
2023-03-13T07:01:01.059Z,53.90
2023-03-13T07:03:29.562Z,53.96
2023-03-13T07:05:58.450Z,53.71
2023-03-13T07:08:27.400Z,53.97
2023-03-13T07:11:00.040Z,53.89
2023-03-13T07:13:30.425Z,53.85
2023-03-13T07:16:01.673Z,53.95
2023-03-13T07:18:29.987Z,53.96
2023-03-13T07:21:00.499Z,53.93
2023-03-13T07:23:30.650Z,53.88
2023-03-13T07:26:01.839Z,53.88
2023-03-13T07:28:32.338Z,53.96
2023-03-13T07:31:08.844Z,53.49
2023-03-13T07:33:37.268Z,53.60
2023-03-13T07:36:06.829Z,53.73
2023-03-13T07:38:35.762Z,53.77
2023-03-13T07:41:04.905Z,53.53
2023-03-13T07:43:34.668Z,53.47
2023-03-13T07:46:06.136Z,53.49
2023-03-13T07:48:36.484Z,53.59
2023-03-13T07:51:06.234Z,53.60
2023-03-13T07:53:35.319Z,53.57
2023-03-13T07:56:06.656Z,53.57
2023-03-13T07:58:38.988Z,53.66
2023-03-13T08:01:12.358Z,53.78
2023-03-13T08:03:41.062Z,53.63
2023-03-13T08:06:11.793Z,53.71
2023-03-13T08:08:40.630Z,53.77
2023-03-13T08:11:11.793Z,53.65
2023-03-13T08:13:42.714Z,53.53
2023-03-13T08:16:13.620Z,53.57
2023-03-13T08:18:44.278Z,53.48
2023-03-13T08:21:15.266Z,53.42
2023-03-13T08:23:44.198Z,53.45
2023-03-13T08:26:15.352Z,53.38
2023-03-13T08:28:46.677Z,53.44
2023-03-13T08:31:17.481Z,53.44
2023-03-13T08:33:47.756Z,53.41
2023-03-13T08:36:19.034Z,53.65
2023-03-13T08:38:48.926Z,53.45
2023-03-13T08:41:19.522Z,53.50
2023-03-13T08:43:49.706Z,53.54
2023-03-13T08:46:19.717Z,53.77
2023-03-13T08:48:51.731Z,53.59
2023-03-13T08:51:23.144Z,53.61
2023-03-13T08:53:52.933Z,53.67
2023-03-13T08:56:24.134Z,53.55
2023-03-13T08:58:55.437Z,53.67
2023-03-13T09:01:26.034Z,53.47
2023-03-13T09:03:55.134Z,53.49
2023-03-13T09:06:23.429Z,53.46
2023-03-13T09:08:51.735Z,53.29
2023-03-13T09:11:22.786Z,53.34
2023-03-13T09:13:53.170Z,53.47
2023-03-13T09:16:23.387Z,53.33
2023-03-13T09:18:53.501Z,53.40
2023-03-13T09:21:24.915Z,53.29
2023-03-13T09:23:53.729Z,53.04
2023-03-13T09:26:23.598Z,53.18
2023-03-13T09:28:53.850Z,53.14
2023-03-13T09:31:25.390Z,52.92
2023-03-13T09:33:54.406Z,53.04
2023-03-13T09:36:24.742Z,52.74
2023-03-13T09:38:54.036Z,53.05
2023-03-13T09:41:27.937Z,52.87
2023-03-13T09:44:06.469Z,52.42
2023-03-13T09:46:40.763Z,52.08
2023-03-13T09:49:18.483Z,51.55
2023-03-13T09:51:52.465Z,51.13
2023-03-13T09:54:28.971Z,51.59
2023-03-13T09:57:02.078Z,51.60
2023-03-13T09:59:50.248Z,51.29
2023-03-13T10:02:32.582Z,51.02
2023-03-13T10:05:15.966Z,50.53
2023-03-13T10:07:44.401Z,50.04
2023-03-13T10:10:18.039Z,49.29
2023-03-13T10:12:48.336Z,49.30
2023-03-13T10:15:33.694Z,49.23
2023-03-13T10:18:13.049Z,48.71
2023-03-13T10:20:42.428Z,48.80
2023-03-13T10:23:18.074Z,49.25
2023-03-13T10:25:46.396Z,48.53
2023-03-13T10:28:16.719Z,49.39
2023-03-13T10:30:52.248Z,48.96
2023-03-13T10:33:25.483Z,48.28
2023-03-13T10:36:10.118Z,48.05
2023-03-13T10:38:52.545Z,48.71
2023-03-13T10:41:29.038Z,48.04
2023-03-13T10:44:02.002Z,46.35
2023-03-13T10:46:34.075Z,46.77
2023-03-13T10:49:05.214Z,46.93
2023-03-13T10:51:39.273Z,46.19
2023-03-13T10:54:22.601Z,46.24
2023-03-13T10:56:51.447Z,45.94
2023-03-13T10:59:26.030Z,46.40
2023-03-13T11:02:02.165Z,46.50
2023-03-13T11:04:34.165Z,46.97
2023-03-13T11:07:05.569Z,47.37
2023-03-13T11:09:34.148Z,47.72
2023-03-13T11:12:06.881Z,48.12
2023-03-13T11:14:36.056Z,48.52
2023-03-13T11:17:23.894Z,48.72
2023-03-13T11:20:03.617Z,47.62
2023-03-13T11:22:46.846Z,47.48
2023-03-13T11:25:24.681Z,47.14
2023-03-13T11:28:11.794Z,47.80
2023-03-13T11:30:59.698Z,47.85
2023-03-13T11:33:43.043Z,47.95
2023-03-13T11:36:21.835Z,47.77
2023-03-13T11:38:56.760Z,47.68
2023-03-13T11:41:46.957Z,48.04
2023-03-13T11:44:31.903Z,47.82
2023-03-13T11:47:27.240Z,46.83
2023-03-13T11:50:17.556Z,46.23
2023-03-13T11:53:05.750Z,46.81
2023-03-13T11:55:47.518Z,46.24
2023-03-13T11:58:36.886Z,46.26
2023-03-13T12:01:10.221Z,45.59
2023-03-13T12:03:46.040Z,45.68
2023-03-13T12:06:28.682Z,45.10
2023-03-13T12:09:05.081Z,43.99
2023-03-13T12:11:38.240Z,44.17
2023-03-13T12:14:13.302Z,42.98
2023-03-13T12:16:46.601Z,42.56
2023-03-13T12:19:19.205Z,41.99
2023-03-13T12:21:53.344Z,42.44
2023-03-13T12:24:29.064Z,41.61
2023-03-13T12:27:02.613Z,41.25
2023-03-13T12:29:47.662Z,41.78
2023-03-13T12:32:21.321Z,40.93
2023-03-13T12:35:01.038Z,40.42
2023-03-13T12:37:40.214Z,40.21
2023-03-13T12:40:19.370Z,40.66
2023-03-13T12:42:56.714Z,39.76
2023-03-13T12:45:27.166Z,39.87
2023-03-13T12:48:29.541Z,38.67
2023-03-13T12:51:18.308Z,39.06
2023-03-13T12:54:14.661Z,39.27
2023-03-13T12:57:07.565Z,39.67
2023-03-13T12:59:38.813Z,39.08
2023-03-13T13:02:17.396Z,39.04
2023-03-13T13:04:48.512Z,39.03
2023-03-13T13:07:26.749Z,39.21
2023-03-13T13:10:17.877Z,39.58
2023-03-13T13:12:48.427Z,39.12
2023-03-13T13:15:21.986Z,38.87
2023-03-13T13:18:01.805Z,39.61
2023-03-13T13:20:46.214Z,39.21
2023-03-13T13:23:36.849Z,38.93
2023-03-13T13:26:51.952Z,38.68
2023-03-13T13:30:00.160Z,39.10
2023-03-13T13:32:44.827Z,38.35
2023-03-13T13:35:31.999Z,38.00
2023-03-13T13:38:34.419Z,37.39
2023-03-13T13:41:06.918Z,37.13
2023-03-13T13:43:37.731Z,36.55
2023-03-13T13:46:29.359Z,36.27
2023-03-13T13:49:18.243Z,36.01
2023-03-13T13:52:32.523Z,37.07
2023-03-13T13:55:00.955Z,35.88
2023-03-13T13:57:34.022Z,35.95
2023-03-13T14:00:19.718Z,35.96
2023-03-13T14:02:52.659Z,36.11
2023-03-13T14:05:26.817Z,36.25
2023-03-13T14:08:02.054Z,35.62
2023-03-13T14:10:39.396Z,36.04
2023-03-13T14:13:16.817Z,36.05
2023-03-13T14:15:48.607Z,35.80
2023-03-13T14:18:23.761Z,35.62
2023-03-13T14:21:02.863Z,35.34
2023-03-13T14:23:42.255Z,34.28
2023-03-13T14:26:17.983Z,33.91
2023-03-13T14:28:49.340Z,34.82
2023-03-13T14:31:29.727Z,35.04
2023-03-13T14:33:59.507Z,35.25
2023-03-13T14:36:28.467Z,34.80
2023-03-13T14:38:59.736Z,34.85
2023-03-13T14:41:37.682Z,34.84
2023-03-13T14:44:08.408Z,34.79
2023-03-13T14:46:42.021Z,35.11
2023-03-13T14:49:18.323Z,35.62
2023-03-13T14:51:46.954Z,35.88
2023-03-13T14:54:29.244Z,36.10
2023-03-13T14:57:16.940Z,36.33
2023-03-13T14:59:45.773Z,36.51
2023-03-13T15:02:24.229Z,36.77
2023-03-13T15:04:56.192Z,36.83
2023-03-13T15:07:26.218Z,37.04
2023-03-13T15:09:54.789Z,36.97
2023-03-13T15:12:24.790Z,37.20
2023-03-13T15:14:54.280Z,37.33
2023-03-13T15:17:26.175Z,37.50
2023-03-13T15:19:56.407Z,37.59
2023-03-13T15:22:31.009Z,37.76
2023-03-13T15:25:08.217Z,37.85
2023-03-13T15:27:37.081Z,37.93
2023-03-13T15:30:07.026Z,37.89
2023-03-13T15:32:39.969Z,37.95
2023-03-13T15:35:28.678Z,38.31
2023-03-13T15:37:57.880Z,38.28
2023-03-13T15:40:27.427Z,38.03
2023-03-13T15:42:56.969Z,38.16
2023-03-13T15:45:25.462Z,38.37
2023-03-13T15:47:55.568Z,38.29
2023-03-13T15:50:29.710Z,37.66
2023-03-13T15:52:58.905Z,36.88
2023-03-13T15:55:28.947Z,36.79
2023-03-13T15:57:57.408Z,37.09
2023-03-13T16:00:28.098Z,37.40
2023-03-13T16:02:57.775Z,37.47
2023-03-13T16:05:26.225Z,37.39
2023-03-13T16:07:54.714Z,37.30
2023-03-13T16:10:27.388Z,37.41
2023-03-13T16:12:56.231Z,37.32
2023-03-13T16:15:24.868Z,37.33
2023-03-13T16:17:53.290Z,37.20
2023-03-13T16:20:26.531Z,37.58
2023-03-13T16:22:54.794Z,37.45
2023-03-13T16:25:23.669Z,37.57
2023-03-13T16:27:53.572Z,37.75
2023-03-13T16:30:26.780Z,37.53
2023-03-13T16:32:55.175Z,37.85
2023-03-13T16:35:26.719Z,37.64
2023-03-13T16:37:55.714Z,37.85
2023-03-13T16:40:27.480Z,38.09
2023-03-13T16:42:55.681Z,37.93
2023-03-13T16:45:24.329Z,37.81
2023-03-13T16:47:52.747Z,37.97
2023-03-13T16:50:28.024Z,37.80
2023-03-13T16:52:56.967Z,37.76
2023-03-13T16:55:28.433Z,37.80
2023-03-13T16:57:57.248Z,37.85
2023-03-13T17:00:28.330Z,37.75
2023-03-13T17:02:58.125Z,37.77
2023-03-13T17:05:28.590Z,37.73
2023-03-13T17:07:56.864Z,38.17
2023-03-13T17:10:28.627Z,37.80
2023-03-13T17:12:57.767Z,37.79
2023-03-13T17:15:27.205Z,37.80
2023-03-13T17:17:56.001Z,37.78
2023-03-13T17:20:28.782Z,38.23
2023-03-13T17:22:57.811Z,38.04
2023-03-13T17:25:26.762Z,37.94
2023-03-13T17:27:55.461Z,37.83
2023-03-13T17:30:27.680Z,37.78
2023-03-13T17:32:56.218Z,38.03
2023-03-13T17:35:25.465Z,38.04
2023-03-13T17:37:55.075Z,38.09
2023-03-13T17:40:26.756Z,38.24
2023-03-13T17:42:56.274Z,38.23
2023-03-13T17:45:25.307Z,38.40
2023-03-13T17:47:54.351Z,38.29
2023-03-13T17:50:27.010Z,38.57
2023-03-13T17:52:57.299Z,38.70
2023-03-13T17:55:25.617Z,38.31
2023-03-13T17:57:53.966Z,38.47
2023-03-13T18:00:26.414Z,38.42
2023-03-13T18:02:54.794Z,38.54
2023-03-13T18:05:23.505Z,38.59
2023-03-13T18:07:53.117Z,38.59
2023-03-13T18:10:25.347Z,38.58
2023-03-13T18:12:54.720Z,38.73
2023-03-13T18:15:25.332Z,38.61
2023-03-13T18:17:53.853Z,38.48
2023-03-13T18:20:25.157Z,38.72
2023-03-13T18:22:54.061Z,38.66
2023-03-13T18:25:23.675Z,38.90
2023-03-13T18:27:51.968Z,38.89
2023-03-13T18:30:23.588Z,38.75
2023-03-13T18:32:52.014Z,38.78
2023-03-13T18:35:20.680Z,38.98
2023-03-13T18:37:49.839Z,39.04
2023-03-13T18:40:20.568Z,39.13
2023-03-13T18:42:50.751Z,39.13
2023-03-13T18:45:21.739Z,39.08
2023-03-13T18:47:50.647Z,39.31
2023-03-13T18:50:26.356Z,39.51
2023-03-13T18:52:55.944Z,39.38
2023-03-13T18:55:25.251Z,39.26
2023-03-13T18:57:56.051Z,39.57
2023-03-13T19:00:26.573Z,39.16
2023-03-13T19:02:54.864Z,39.42
2023-03-13T19:05:23.346Z,39.46
2023-03-13T19:07:51.804Z,39.44
2023-03-13T19:10:25.111Z,39.42
2023-03-13T19:12:56.948Z,39.42
2023-03-13T19:15:28.883Z,39.35
2023-03-13T19:18:01.817Z,39.38
2023-03-13T19:20:31.290Z,39.53
2023-03-13T19:23:00.815Z,39.71
2023-03-13T19:25:29.445Z,39.79
2023-03-13T19:27:59.040Z,39.75
2023-03-13T19:30:28.309Z,39.76
2023-03-13T19:32:56.707Z,39.88
2023-03-13T19:35:25.077Z,39.87
2023-03-13T19:37:53.417Z,39.96
2023-03-13T19:40:24.417Z,39.95
2023-03-13T19:42:52.860Z,40.10
2023-03-13T19:45:23.115Z,40.09
2023-03-13T19:47:51.543Z,40.18
2023-03-13T19:50:22.879Z,40.28
2023-03-13T19:52:51.216Z,40.28
2023-03-13T19:55:19.669Z,40.39
2023-03-13T19:57:47.966Z,40.38
2023-03-13T20:00:23.162Z,40.37
2023-03-13T20:02:52.269Z,40.38
2023-03-13T20:05:20.686Z,40.38
2023-03-13T20:07:49.117Z,40.48
2023-03-13T20:10:17.903Z,40.49
2023-03-13T20:12:46.159Z,40.33
2023-03-13T20:15:14.536Z,40.37
2023-03-13T20:17:44.148Z,40.42
2023-03-13T20:20:13.788Z,40.39
2023-03-13T20:22:42.380Z,40.36
2023-03-13T20:25:11.627Z,40.52
2023-03-13T20:27:40.254Z,40.51
2023-03-13T20:30:10.637Z,40.43
2023-03-13T20:32:46.221Z,40.30
2023-03-13T20:35:26.877Z,40.38
2023-03-13T20:37:57.412Z,40.40
2023-03-13T20:40:25.749Z,40.46
2023-03-13T20:42:54.118Z,40.47
2023-03-13T20:45:22.397Z,40.71
2023-03-13T20:47:50.730Z,40.58
2023-03-13T20:50:19.826Z,40.74
2023-03-13T20:52:49.814Z,40.87
2023-03-13T20:55:18.803Z,40.84
2023-03-13T20:57:47.060Z,40.77
2023-03-13T21:00:16.200Z,40.89
2023-03-13T21:02:44.459Z,41.06
2023-03-13T21:05:12.681Z,41.12
2023-03-13T21:07:40.902Z,41.34
2023-03-13T21:10:12.715Z,41.36
2023-03-13T21:12:41.207Z,41.48
2023-03-13T21:15:11.204Z,41.50
2023-03-13T21:17:40.075Z,41.68
2023-03-13T21:20:11.871Z,41.62
2023-03-13T21:22:40.417Z,41.77
2023-03-13T21:25:11.817Z,41.75
2023-03-13T21:27:40.464Z,41.86
2023-03-13T21:30:14.098Z,41.88
2023-03-13T21:32:42.494Z,41.93
2023-03-13T21:35:11.959Z,41.95
2023-03-13T21:37:40.763Z,42.20
2023-03-13T21:40:12.624Z,41.98
2023-03-13T21:42:40.935Z,42.35
2023-03-13T21:45:11.490Z,42.47
2023-03-13T21:47:40.412Z,42.53
2023-03-13T21:50:11.228Z,42.70
2023-03-13T21:52:41.322Z,42.75
2023-03-13T21:55:13.928Z,42.67
2023-03-13T21:57:42.313Z,42.86
2023-03-13T22:00:14.056Z,42.73
2023-03-13T22:02:42.951Z,42.96
2023-03-13T22:05:11.534Z,42.67
2023-03-13T22:07:39.817Z,43.09
2023-03-13T22:10:09.023Z,43.21
2023-03-13T22:12:38.666Z,43.29
2023-03-13T22:15:09.062Z,43.43
2023-03-13T22:17:37.409Z,43.17
2023-03-13T22:20:07.566Z,43.60
2023-03-13T22:22:35.853Z,43.88
2023-03-13T22:25:04.544Z,44.01
2023-03-13T22:27:32.911Z,44.08
2023-03-13T22:30:02.581Z,44.06
2023-03-13T22:32:30.901Z,44.78
2023-03-13T22:34:59.242Z,45.56
2023-03-13T22:37:27.681Z,45.27
2023-03-13T22:39:56.432Z,45.29
2023-03-13T22:42:26.130Z,45.13
2023-03-13T22:44:55.655Z,45.29
2023-03-13T22:47:26.514Z,45.33
2023-03-13T22:49:54.867Z,45.38
2023-03-13T22:52:28.930Z,45.21
2023-03-13T22:54:57.439Z,45.32
2023-03-13T22:57:25.843Z,45.31
2023-03-13T22:59:54.165Z,45.12
2023-03-13T23:02:23.920Z,44.92
2023-03-13T23:04:52.370Z,44.97
2023-03-13T23:07:22.535Z,45.15
2023-03-13T23:09:50.874Z,44.92
2023-03-13T23:12:19.148Z,44.99
2023-03-13T23:14:47.360Z,44.95
2023-03-13T23:17:15.703Z,45.18
2023-03-13T23:19:45.416Z,45.33
2023-03-13T23:22:17.873Z,45.84
2023-03-13T23:24:46.442Z,46.03
2023-03-13T23:27:14.743Z,46.23
2023-03-13T23:29:42.988Z,46.22
2023-03-13T23:32:11.302Z,46.34
2023-03-13T23:34:39.567Z,46.48
2023-03-13T23:37:09.204Z,46.49
2023-03-13T23:39:37.465Z,46.45
2023-03-13T23:42:05.756Z,46.52
2023-03-13T23:44:34.017Z,46.39
2023-03-13T23:47:02.282Z,46.37
2023-03-13T23:49:31.912Z,46.48
2023-03-13T23:52:00.897Z,46.47
2023-03-13T23:54:30.574Z,46.57
2023-03-13T23:56:58.899Z,46.38
2023-03-13T23:59:27.331Z,46.47
